Time;durP1;ratioP1;P1;durP2;ratioP2;P2;SDS_P1;SDS_P2;PMS_P1;PMS_P2;Temp;Humidity;BMP_temperature;BMP_pressure;BME280_temperature;BME280_humidity;BME280_pressure;Samples;Min_cycle;Max_cycle;Signal;HPM_P1;HPM_P2
2021/09/03 00:02:23;;;;;;;17.58;10.82;;;15.50;99.90;;;;;;7402511;19;20020;-87
2021/09/03 00:04:53;;;;;;;20.08;11.00;;;15.40;99.90;;;;;;7402435;19;20025;-87
2021/09/03 00:07:24;;;;;;;22.92;12.15;;;15.40;99.90;;;;;;7398796;19;20079;-87
2021/09/03 00:09:53;;;;;;;19.35;11.13;;;15.40;99.90;;;;;;7397707;19;20034;-86
2021/09/03 00:12:25;;;;;;;18.60;11.55;;;15.40;99.90;;;;;;7397434;19;20011;-87
2021/09/03 00:14:57;;;;;;;22.70;10.98;;;15.40;99.90;;;;;;7405879;19;20010;-86
2021/09/03 00:17:27;;;;;;;16.98;11.02;;;15.30;99.90;;;;;;7409639;19;20061;-86
2021/09/03 00:20:01;;;;;;;18.83;10.73;;;15.30;99.90;;;;;;7403847;19;20003;-86
2021/09/03 00:22:34;;;;;;;19.48;11.70;;;15.30;99.90;;;;;;7403164;19;20014;-87
2021/09/03 00:25:04;;;;;;;20.73;11.50;;;15.30;99.90;;;;;;7402524;19;20021;-88
2021/09/03 00:27:36;;;;;;;17.40;10.60;;;15.30;99.90;;;;;;7402064;19;20452;-85
2021/09/03 00:30:06;;;;;;;17.40;10.98;;;15.20;99.90;;;;;;7401147;19;20015;-86
2021/09/03 00:32:37;;;;;;;19.55;11.13;;;15.20;99.90;;;;;;7401372;19;20060;-85
2021/09/03 00:35:08;;;;;;;17.98;11.27;;;15.20;99.90;;;;;;7403870;19;20052;-87
2021/09/03 00:37:37;;;;;;;17.77;10.88;;;15.20;99.90;;;;;;7402524;19;20011;-86
2021/09/03 00:40:08;;;;;;;21.42;10.23;;;15.20;99.90;;;;;;7400702;19;20010;-85
2021/09/03 00:42:40;;;;;;;17.98;10.80;;;15.10;99.90;;;;;;7402608;19;20074;-87
2021/09/03 00:45:15;;;;;;;19.50;11.02;;;15.10;99.90;;;;;;7400846;19;20007;-88
2021/09/03 00:47:46;;;;;;;17.20;11.23;;;15.10;99.90;;;;;;7402956;19;20034;-85
2021/09/03 00:50:15;;;;;;;22.58;11.15;;;15.10;99.90;;;;;;7403063;19;20464;-87
2021/09/03 00:52:45;;;;;;;17.30;11.45;;;15.00;99.90;;;;;;7423725;19;20007;-87
2021/09/03 00:55:16;;;;;;;17.70;11.40;;;15.10;99.90;;;;;;7414165;19;20015;-87
2021/09/03 00:57:49;;;;;;;19.55;11.95;;;15.00;99.90;;;;;;7402808;19;20032;-88
2021/09/03 01:00:19;;;;;;;17.92;11.20;;;15.00;99.90;;;;;;7399793;19;20015;-86
2021/09/03 01:02:49;;;;;;;16.02;11.63;;;15.00;99.90;;;;;;7403396;19;20014;-87
2021/09/03 01:05:23;;;;;;;19.15;11.35;;;15.00;99.90;;;;;;7401189;19;20021;-87
2021/09/03 01:07:55;;;;;;;18.85;11.80;;;15.00;99.90;;;;;;7400942;19;20011;-86
2021/09/03 01:10:27;;;;;;;17.02;10.85;;;15.00;99.90;;;;;;7401606;19;20110;-86
2021/09/03 01:13:00;;;;;;;18.20;10.65;;;14.90;99.90;;;;;;7401457;19;20008;-87
2021/09/03 01:15:31;;;;;;;16.33;10.38;;;14.90;99.90;;;;;;7401056;19;20346;-86
2021/09/03 01:18:01;;;;;;;18.30;11.02;;;14.80;99.90;;;;;;7400833;19;20019;-87
2021/09/03 01:20:33;;;;;;;17.60;10.60;;;14.80;99.90;;;;;;7401317;19;20006;-87
2021/09/03 01:23:05;;;;;;;17.92;10.68;;;14.80;99.90;;;;;;7401332;19;20019;-87
2021/09/03 01:25:36;;;;;;;18.35;11.05;;;14.70;99.90;;;;;;7401562;19;20082;-87
2021/09/03 01:28:06;;;;;;;18.23;11.35;;;14.70;99.90;;;;;;7400602;19;20022;-87
2021/09/03 01:30:36;;;;;;;16.95;10.73;;;14.70;99.90;;;;;;7401950;19;20013;-86
2021/09/03 01:33:06;;;;;;;20.05;10.82;;;14.70;99.90;;;;;;7403780;19;20012;-88
2021/09/03 01:35:35;;;;;;;17.38;10.65;;;14.60;99.90;;;;;;7403048;19;20016;-87
2021/09/03 01:38:08;;;;;;;18.05;11.45;;;14.70;99.90;;;;;;7400822;19;20082;-88
2021/09/03 01:40:38;;;;;;;17.92;10.05;;;14.60;99.90;;;;;;7402130;19;20014;-85
2021/09/03 01:43:07;;;;;;;21.23;11.48;;;14.60;99.90;;;;;;7401678;19;20007;-88
2021/09/03 01:45:38;;;;;;;18.08;11.05;;;14.60;99.90;;;;;;7404825;19;20014;-88
2021/09/03 01:48:09;;;;;;;20.75;12.13;;;14.50;99.90;;;;;;7403355;19;20006;-87
2021/09/03 01:50:38;;;;;;;17.52;11.68;;;14.50;99.90;;;;;;7403715;19;20102;-86
2021/09/03 01:53:14;;;;;;;20.33;12.10;;;14.50;99.90;;;;;;7400999;19;20014;-86
2021/09/03 01:55:43;;;;;;;19.13;11.20;;;14.50;99.90;;;;;;7401622;19;20462;-87
2021/09/03 01:58:12;;;;;;;17.55;11.25;;;14.40;99.90;;;;;;7399227;19;20017;-86
2021/09/03 02:00:42;;;;;;;19.17;10.60;;;14.50;99.90;;;;;;7406058;19;20010;-86
2021/09/03 02:03:13;;;;;;;22.92;12.30;;;14.40;99.90;;;;;;7415958;19;20033;-86
2021/09/03 02:05:43;;;;;;;20.65;11.68;;;14.40;99.90;;;;;;7424541;19;20014;-84
2021/09/03 02:08:15;;;;;;;16.30;11.02;;;14.40;99.90;;;;;;7431677;19;19999;-86
2021/09/03 02:10:44;;;;;;;19.08;11.85;;;14.40;99.90;;;;;;7429675;19;20042;-87
2021/09/03 02:13:16;;;;;;;19.20;12.13;;;14.30;99.90;;;;;;7426417;19;20018;-86
2021/09/03 02:15:52;;;;;;;21.45;12.00;;;14.30;99.90;;;;;;7430321;19;20024;-85
2021/09/03 02:18:21;;;;;;;21.50;12.25;;;14.30;99.90;;;;;;7422704;19;20476;-87
2021/09/03 02:20:51;;;;;;;19.95;11.98;;;14.30;99.90;;;;;;7418996;19;20018;-88
2021/09/03 02:23:23;;;;;;;22.27;12.00;;;14.40;99.90;;;;;;7405165;19;20018;-89
2021/09/03 02:25:54;;;;;;;22.00;11.98;;;14.30;99.90;;;;;;7400384;19;20021;-88
2021/09/03 02:28:26;;;;;;;20.58;12.40;;;14.20;99.90;;;;;;7411496;19;20040;-87
2021/09/03 02:30:58;;;;;;;18.45;12.60;;;14.20;99.90;;;;;;7400509;19;20376;-88
2021/09/03 02:33:28;;;;;;;21.02;12.57;;;14.20;99.90;;;;;;7401653;19;20011;-87
2021/09/03 02:35:57;;;;;;;22.15;12.73;;;14.20;99.90;;;;;;7399419;19;20101;-88
2021/09/03 02:38:29;;;;;;;18.10;12.38;;;14.10;99.90;;;;;;7401511;19;20018;-89
2021/09/03 02:40:59;;;;;;;19.00;11.88;;;14.10;99.90;;;;;;7399897;19;20011;-88
2021/09/03 02:43:28;;;;;;;18.45;11.15;;;14.10;99.90;;;;;;7400601;19;20451;-89
2021/09/03 02:45:58;;;;;;;19.92;12.13;;;14.10;99.90;;;;;;7399552;19;20022;-88
2021/09/03 02:48:28;;;;;;;17.52;11.20;;;14.00;99.90;;;;;;7399993;19;20026;-89
2021/09/03 02:50:58;;;;;;;17.33;11.00;;;14.00;99.90;;;;;;7398605;19;20333;-88
2021/09/03 02:53:30;;;;;;;20.35;12.20;;;14.00;99.90;;;;;;7399995;19;20019;-88
2021/09/03 02:55:59;;;;;;;17.65;11.00;;;14.00;99.90;;;;;;7398571;19;20432;-89
2021/09/03 02:58:30;;;;;;;20.70;11.48;;;13.90;99.90;;;;;;7400743;19;20015;-88
2021/09/03 03:01:01;;;;;;;18.70;11.57;;;13.90;99.90;;;;;;7396504;19;20675;-88
2021/09/03 03:03:31;;;;;;;17.88;11.13;;;13.90;99.90;;;;;;7397582;19;20017;-88
2021/09/03 03:06:00;;;;;;;19.77;11.77;;;13.80;99.90;;;;;;7403742;19;20003;-89
2021/09/03 03:08:35;;;;;;;17.90;12.15;;;13.80;99.90;;;;;;7399388;19;20018;-89
2021/09/03 03:11:04;;;;;;;21.10;11.82;;;13.80;99.90;;;;;;7401165;19;20014;-88
2021/09/03 03:13:34;;;;;;;17.40;11.82;;;13.80;99.90;;;;;;7405859;19;20441;-89
2021/09/03 03:16:03;;;;;;;17.38;11.45;;;13.80;99.90;;;;;;7404445;19;20010;-89
2021/09/03 03:18:35;;;;;;;21.23;11.68;;;13.70;99.90;;;;;;7405312;19;20343;-89
2021/09/03 03:21:05;;;;;;;17.17;11.60;;;13.80;99.90;;;;;;7406469;19;20028;-89
2021/09/03 03:23:37;;;;;;;17.98;12.70;;;13.80;99.90;;;;;;7405742;19;20431;-89
2021/09/03 03:26:10;;;;;;;20.58;13.18;;;13.70;99.90;;;;;;7406468;19;20014;-89
2021/09/03 03:28:39;;;;;;;21.35;12.93;;;13.70;99.90;;;;;;7405750;19;20039;-89
2021/09/03 03:31:09;;;;;;;15.27;10.52;;;13.70;99.90;;;;;;7405749;19;20014;-90
2021/09/03 03:33:38;;;;;;;18.65;10.65;;;13.60;99.90;;;;;;7405961;19;20497;-89
2021/09/03 03:36:08;;;;;;;17.20;10.85;;;13.60;99.90;;;;;;7404140;19;20040;-88
2021/09/03 03:38:42;;;;;;;19.42;11.75;;;13.50;99.90;;;;;;7404550;19;20054;-90
2021/09/03 03:41:12;;;;;;;15.50;10.65;;;13.60;99.90;;;;;;7405318;19;20010;-87
2021/09/03 03:43:46;;;;;;;20.50;10.82;;;13.50;99.90;;;;;;7407163;19;20007;-88
2021/09/03 03:46:16;;;;;;;23.85;11.43;;;13.50;99.90;;;;;;7404486;19;20048;-89
2021/09/03 03:48:48;;;;;;;19.15;11.75;;;13.60;99.90;;;;;;7406102;19;20010;-89
2021/09/03 03:51:20;;;;;;;24.27;12.27;;;13.60;99.90;;;;;;7404941;19;20014;-89
2021/09/03 03:53:52;;;;;;;22.60;12.98;;;13.60;99.90;;;;;;7406211;19;20014;-89
2021/09/03 03:56:22;;;;;;;22.23;12.77;;;13.70;99.90;;;;;;7404986;19;20011;-89
2021/09/03 03:58:52;;;;;;;19.23;11.45;;;13.70;99.90;;;;;;7406583;19;20435;-89
2021/09/03 04:01:23;;;;;;;23.55;13.23;;;13.80;99.90;;;;;;7409441;19;20029;-89
2021/09/03 04:03:52;;;;;;;20.70;11.90;;;13.90;99.90;;;;;;7403479;19;20026;-88
2021/09/03 04:06:22;;;;;;;20.88;11.80;;;13.90;99.90;;;;;;7420496;19;20382;-90
2021/09/03 04:08:54;;;;;;;21.42;12.23;;;14.00;99.90;;;;;;7405150;19;20019;-88
2021/09/03 04:11:24;;;;;;;15.23;10.50;;;14.00;99.90;;;;;;7404644;19;20011;-89
2021/09/03 04:13:53;;;;;;;24.55;14.85;;;13.90;99.90;;;;;;7405410;19;20101;-89
2021/09/03 04:16:23;;;;;;;19.90;11.23;;;13.90;99.90;;;;;;7407291;19;20006;-91
2021/09/03 04:18:52;;;;;;;16.77;10.55;;;14.00;99.90;;;;;;7407148;19;20432;-91
2021/09/03 04:21:23;;;;;;;15.95;9.55;;;14.00;99.90;;;;;;7406525;19;20006;-92
2021/09/03 04:23:57;;;;;;;15.02;10.50;;;14.00;99.90;;;;;;7409466;19;20014;-92
2021/09/03 04:26:27;;;;;;;14.18;9.48;;;13.90;99.90;;;;;;7408673;19;20005;-90
2021/09/03 04:28:58;;;;;;;15.05;10.23;;;13.80;99.90;;;;;;7406729;19;20270;-90
2021/09/03 04:31:28;;;;;;;16.58;11.65;;;13.70;99.90;;;;;;7413164;19;20029;-92
2021/09/03 04:33:58;;;;;;;45.88;15.80;;;13.80;99.90;;;;;;7407967;19;20096;-91
2021/09/03 04:36:28;;;;;;;15.63;11.43;;;13.80;99.90;;;;;;7423431;19;20010;-91
2021/09/03 04:39:01;;;;;;;16.05;11.32;;;13.80;99.90;;;;;;7419152;19;20003;-91
2021/09/03 04:41:31;;;;;;;20.88;12.25;;;13.80;99.90;;;;;;7416218;19;20019;-89
2021/09/03 04:44:00;;;;;;;18.10;12.10;;;13.80;99.90;;;;;;7410415;19;20017;-92
2021/09/03 04:46:32;;;;;;;22.20;13.55;;;13.70;99.90;;;;;;7407538;19;20011;-90
2021/09/03 04:49:01;;;;;;;18.35;12.50;;;13.70;99.90;;;;;;7404448;19;20010;-90
2021/09/03 04:51:33;;;;;;;18.70;12.63;;;13.70;99.90;;;;;;7403495;19;20014;-90
2021/09/03 04:54:05;;;;;;;20.65;11.77;;;13.70;99.90;;;;;;7402421;19;20014;-89
2021/09/03 04:56:35;;;;;;;17.98;11.85;;;13.70;99.90;;;;;;7403250;19;20329;-90
2021/09/03 04:59:08;;;;;;;17.60;11.57;;;13.70;99.90;;;;;;7401877;19;20014;-89
2021/09/03 05:01:37;;;;;;;15.95;10.65;;;13.80;99.90;;;;;;7402365;19;20444;-89
2021/09/03 05:04:07;;;;;;;16.10;11.23;;;13.80;99.90;;;;;;7403973;19;20006;-88
2021/09/03 05:06:36;;;;;;;18.55;11.50;;;13.80;99.90;;;;;;7412013;19;20009;-89
2021/09/03 05:09:09;;;;;;;15.13;10.77;;;13.80;99.90;;;;;;7404628;19;20094;-90
2021/09/03 05:11:40;;;;;;;17.95;12.70;;;13.90;99.90;;;;;;7403490;19;20014;-90
2021/09/03 05:14:09;;;;;;;17.80;11.65;;;14.00;99.90;;;;;;7403795;19;20018;-90
2021/09/03 05:16:44;;;;;;;21.60;12.10;;;14.10;99.90;;;;;;7403924;19;20102;-91
2021/09/03 05:19:13;;;;;;;18.52;11.63;;;14.20;99.90;;;;;;7405380;19;20007;-90
2021/09/03 05:21:42;;;;;;;15.32;10.80;;;14.30;99.90;;;;;;7422355;19;20035;-89
2021/09/03 05:24:14;;;;;;;21.10;12.88;;;14.30;99.90;;;;;;7405681;19;20027;-92
2021/09/03 05:26:44;;;;;;;19.95;12.65;;;14.20;99.90;;;;;;7405224;19;20034;-91
2021/09/03 05:29:13;;;;;;;18.00;12.00;;;14.30;99.90;;;;;;7405541;19;20073;-92
2021/09/03 05:31:48;;;;;;;22.65;12.75;;;14.40;99.90;;;;;;7404251;19;20022;-92
2021/09/03 05:34:17;;;;;;;22.30;11.77;;;14.40;99.90;;;;;;7404776;19;20017;-89
2021/09/03 05:36:47;;;;;;;21.75;12.95;;;14.40;99.90;;;;;;7407161;19;20037;-90
2021/09/03 05:39:19;;;;;;;19.65;12.40;;;14.40;99.90;;;;;;7405997;19;20040;-90
2021/09/03 05:41:51;;;;;;;26.90;12.10;;;14.30;99.90;;;;;;7407430;19;20428;-89
2021/09/03 05:44:20;;;;;;;18.70;12.65;;;14.30;99.90;;;;;;7412489;19;20023;-87
2021/09/03 05:46:51;;;;;;;27.73;14.85;;;14.20;99.90;;;;;;7414984;19;20039;-86
2021/09/03 05:49:24;;;;;;;19.75;12.90;;;14.20;99.90;;;;;;7411592;19;20086;-87
2021/09/03 05:51:53;;;;;;;30.38;14.60;;;14.10;99.90;;;;;;7403117;19;20009;-91
2021/09/03 05:54:30;;;;;;;27.65;13.98;;;14.20;99.90;;;;;;7404072;19;20002;-92
2021/09/03 05:56:59;;;;;;;19.23;13.02;;;14.40;99.90;;;;;;7405890;19;20006;-91
2021/09/03 05:59:28;;;;;;;18.20;12.80;;;14.50;99.90;;;;;;7414612;19;20025;-88
2021/09/03 06:01:58;;;;;;;19.85;12.50;;;14.60;99.90;;;;;;7409580;19;20022;-90
2021/09/03 06:04:27;;;;;;;22.77;13.60;;;14.80;99.90;;;;;;7408248;19;20014;-90
2021/09/03 06:06:57;;;;;;;25.60;13.95;;;14.90;99.90;;;;;;7410201;19;20013;-90
2021/09/03 06:09:29;;;;;;;25.67;13.95;;;15.00;99.90;;;;;;7409332;19;20011;-91
2021/09/03 06:11:58;;;;;;;21.77;13.68;;;15.10;99.90;;;;;;7404451;19;20014;-89
2021/09/03 06:14:28;;;;;;;21.17;12.35;;;15.10;99.90;;;;;;7401513;19;20003;-91
2021/09/03 06:16:57;;;;;;;20.25;12.15;;;15.20;99.90;;;;;;7401114;19;20014;-89
2021/09/03 06:19:26;;;;;;;31.83;15.18;;;15.30;99.90;;;;;;7401212;19;20011;-89
2021/09/03 06:21:57;;;;;;;20.52;12.60;;;15.30;99.90;;;;;;7400233;19;20496;-89
2021/09/03 06:24:30;;;;;;;18.02;12.10;;;15.30;99.90;;;;;;7402281;19;20010;-86
2021/09/03 06:27:03;;;;;;;19.52;12.07;;;15.30;99.90;;;;;;7401133;19;20078;-89
2021/09/03 06:29:41;;;;;;;22.38;12.95;;;15.30;99.90;;;;;;7403538;19;20010;-88
2021/09/03 06:32:12;;;;;;;22.08;13.43;;;15.00;99.90;;;;;;7408954;19;20033;-89
2021/09/03 06:34:46;;;;;;;22.05;14.23;;;14.80;99.90;;;;;;7415768;19;20014;-91
2021/09/03 06:37:18;;;;;;;22.95;14.43;;;14.70;99.90;;;;;;7431776;19;20019;-94
2021/09/03 06:39:51;;;;;;;29.52;15.95;;;14.40;99.90;;;;;;7406277;19;20143;-86
2021/09/03 06:42:21;;;;;;;22.98;14.77;;;14.40;99.90;;;;;;7405423;19;20018;-90
2021/09/03 06:44:51;;;;;;;31.60;18.90;;;14.40;99.90;;;;;;7422317;19;20024;-92
2021/09/03 06:47:23;;;;;;;27.50;17.77;;;14.40;99.90;;;;;;7416609;19;20013;-89
2021/09/03 06:49:54;;;;;;;29.88;17.73;;;14.60;99.90;;;;;;7412424;19;20125;-89
2021/09/03 06:52:32;;;;;;;24.83;16.88;;;14.70;99.90;;;;;;7413499;19;20019;-90
2021/09/03 06:55:06;;;;;;;;;;;14.70;99.90;;;;;;7407313;19;20014;-86
2021/09/03 06:57:38;;;;;;;30.02;17.48;;;14.80;99.90;;;;;;7419705;19;19915;-88
2021/09/03 07:00:12;;;;;;;32.72;18.98;;;14.80;99.90;;;;;;7419553;19;20014;-90
2021/09/03 07:02:41;;;;;;;33.00;19.15;;;14.80;99.90;;;;;;7408311;19;20017;-90
2021/09/03 07:05:34;;;;;;;28.42;17.80;;;14.90;99.90;;;;;;7420385;19;20002;-91
2021/09/03 07:08:24;;;;;;;30.75;18.35;;;15.00;99.90;;;;;;7431696;19;20082;-91
2021/09/03 07:11:08;;;;;;;29.23;17.95;;;15.10;99.90;;;;;;7433926;19;20019;-91
2021/09/03 07:13:43;;;;;;;30.55;17.05;;;15.30;99.90;;;;;;7432454;19;20007;-89
2021/09/03 07:16:13;;;;;;;31.70;17.83;;;15.50;99.90;;;;;;7426900;19;20019;-91
2021/09/03 07:18:50;;;;;;;29.75;17.67;;;15.60;99.90;;;;;;7428322;19;20030;-88
2021/09/03 07:21:22;;;;;;;25.88;16.98;;;15.80;99.90;;;;;;7434574;19;20019;-90
2021/09/03 07:23:51;;;;;;;24.75;15.27;;;16.00;99.90;;;;;;7432910;19;20007;-88
2021/09/03 07:26:23;;;;;;;27.70;16.95;;;16.10;99.90;;;;;;7432008;19;20007;-88
2021/09/03 07:28:55;;;;;;;37.17;18.48;;;16.20;99.90;;;;;;7427934;19;20035;-86
2021/09/03 07:31:25;;;;;;;34.03;18.50;;;16.40;99.90;;;;;;7431256;19;20022;-89
2021/09/03 07:34:07;;;;;;;33.60;17.95;;;16.50;99.90;;;;;;7431235;19;20010;-87
2021/09/03 07:36:43;;;;;;;33.15;19.58;;;16.50;99.90;;;;;;7427748;19;20039;-90
2021/09/03 07:39:18;;;;;;;34.20;18.98;;;16.50;99.90;;;;;;7421880;19;20014;-90
2021/09/03 07:41:51;;;;;;;34.38;18.70;;;16.50;99.90;;;;;;7401128;19;20006;-91
2021/09/03 07:44:20;;;;;;;34.55;19.02;;;16.30;99.90;;;;;;7411559;19;20434;-90
2021/09/03 07:46:49;;;;;;;33.80;19.52;;;16.30;99.90;;;;;;7410571;19;20011;-90
2021/09/03 07:49:19;;;;;;;33.65;19.00;;;16.20;99.90;;;;;;7408641;19;20010;-90
2021/09/03 07:51:48;;;;;;;37.42;19.33;;;16.20;99.90;;;;;;7408379;19;20010;-90
2021/09/03 07:54:20;;;;;;;32.78;20.45;;;16.40;99.90;;;;;;7405519;19;20026;-90
2021/09/03 07:56:57;;;;;;;32.72;17.85;;;16.40;99.90;;;;;;7401564;19;20305;-90
2021/09/03 07:59:26;;;;;;;32.53;18.50;;;16.50;99.90;;;;;;7405215;19;20425;-90
2021/09/03 08:01:55;;;;;;;29.50;18.08;;;16.50;99.90;;;;;;7406049;19;20298;-88
2021/09/03 08:04:25;;;;;;;32.05;20.05;;;16.40;99.90;;;;;;7405424;19;20479;-89
2021/09/03 08:06:55;;;;;;;34.45;19.08;;;16.60;99.90;;;;;;7404732;19;20029;-88
2021/09/03 08:09:25;;;;;;;31.60;19.27;;;16.60;99.90;;;;;;7404997;19;20014;-90
2021/09/03 08:11:58;;;;;;;30.92;19.13;;;16.60;99.90;;;;;;7413802;19;20086;-92
2021/09/03 08:14:35;;;;;;;30.70;18.83;;;16.70;99.90;;;;;;7415654;19;20019;-90
2021/09/03 08:17:07;;;;;;;28.92;17.90;;;16.80;99.90;;;;;;7410943;19;20015;-90
2021/09/03 08:19:36;;;;;;;41.78;19.65;;;16.80;99.90;;;;;;7408368;19;20054;-89
2021/09/03 08:22:06;;;;;;;35.53;19.23;;;16.80;99.90;;;;;;7409369;19;20017;-89
2021/09/03 08:24:36;;;;;;;30.27;19.27;;;16.70;99.90;;;;;;7429844;19;20019;-86
2021/09/03 08:27:11;;;;;;;33.13;19.63;;;16.70;99.90;;;;;;7414546;19;20045;-87
2021/09/03 08:29:43;;;;;;;31.77;17.88;;;16.70;99.90;;;;;;7422445;19;20465;-91
2021/09/03 08:32:22;;;;;;;29.58;16.23;;;16.80;99.90;;;;;;7418217;19;20056;-88
2021/09/03 08:34:54;;;;;;;27.38;16.92;;;17.00;99.90;;;;;;7406948;19;20006;-90
2021/09/03 08:37:23;;;;;;;23.20;15.43;;;17.10;99.90;;;;;;7407427;19;20082;-86
2021/09/03 08:39:56;;;;;;;21.30;13.90;;;17.30;99.90;;;;;;7402643;19;20025;-91
2021/09/03 08:42:28;;;;;;;26.20;14.70;;;17.40;99.90;;;;;;7402535;19;20014;-88
2021/09/03 08:45:01;;;;;;;29.45;15.65;;;17.70;99.90;;;;;;7404875;19;20010;-90
2021/09/03 08:47:34;;;;;;;26.30;14.43;;;17.70;99.90;;;;;;7406030;19;20040;-90
2021/09/03 08:50:03;;;;;;;21.35;14.07;;;17.90;99.90;;;;;;7411320;19;20018;-90
2021/09/03 08:52:35;;;;;;;23.42;14.60;;;18.00;99.90;;;;;;7405847;19;20018;-91
2021/09/03 08:55:09;;;;;;;22.08;13.57;;;18.00;99.90;;;;;;7406109;19;20022;-91
2021/09/03 08:57:41;;;;;;;21.80;13.40;;;18.10;99.90;;;;;;7405553;19;20014;-91
2021/09/03 09:00:18;;;;;;;23.23;13.18;;;18.20;99.90;;;;;;7404843;19;20445;-87
2021/09/03 09:03:03;;;;;;;22.48;13.35;;;18.40;99.90;;;;;;7402394;19;20010;-87
2021/09/03 09:05:51;;;;;;;25.35;13.88;;;18.70;99.90;;;;;;7403906;19;20046;-86
2021/09/03 09:08:24;;;;;;;29.90;15.75;;;18.80;99.90;;;;;;7401366;19;20091;-91
2021/09/03 09:10:57;;;;;;;27.77;15.40;;;18.70;99.90;;;;;;7404822;19;20002;-91
2021/09/03 09:13:30;;;;;;;27.70;14.82;;;18.50;99.90;;;;;;7405173;19;20089;-90
2021/09/03 09:16:10;;;;;;;24.35;15.00;;;18.50;99.90;;;;;;7406106;19;20007;-89
2021/09/03 09:18:45;;;;;;;27.95;16.77;;;18.70;99.90;;;;;;7418431;19;20022;-93
2021/09/03 09:21:26;;;;;;;25.92;16.15;;;18.80;99.90;;;;;;7412274;19;20308;-90
2021/09/03 09:23:58;;;;;;;31.02;17.42;;;18.90;99.90;;;;;;7410558;19;20037;-87
2021/09/03 09:26:31;;;;;;;30.60;16.30;;;18.90;99.90;;;;;;7400991;19;20010;-88
2021/09/03 09:29:15;;;;;;;34.08;17.80;;;19.10;99.90;;;;;;7406863;19;20047;-88
2021/09/03 09:31:47;;;;;;;32.03;17.48;;;19.20;99.90;;;;;;7402121;19;20022;-90
2021/09/03 09:34:19;;;;;;;30.17;16.63;;;19.20;99.90;;;;;;7404728;19;20085;-89
2021/09/03 09:36:50;;;;;;;26.02;17.23;;;19.30;99.90;;;;;;7402707;19;20044;-92
2021/09/03 09:39:22;;;;;;;25.50;15.20;;;19.20;99.90;;;;;;7403235;19;20025;-89
2021/09/03 09:42:01;;;;;;;28.52;16.63;;;19.30;99.90;;;;;;7402069;19;20082;-91
2021/09/03 09:44:39;;;;;;;23.60;14.50;;;19.30;99.90;;;;;;7407791;19;20033;-89
2021/09/03 09:47:15;;;;;;;25.33;15.15;;;19.60;99.90;;;;;;7408189;19;20012;-88
2021/09/03 09:49:48;;;;;;;22.05;13.55;;;20.00;99.90;;;;;;7406530;19;20015;-88
2021/09/03 09:52:18;;;;;;;27.15;14.10;;;20.80;99.90;;;;;;7410893;19;20033;-87
2021/09/03 09:54:48;;;;;;;22.42;13.95;;;21.60;99.90;;;;;;7403276;19;20048;-88
2021/09/03 09:57:20;;;;;;;24.25;13.85;;;21.40;99.90;;;;;;7402157;19;20015;-88
2021/09/03 09:59:54;;;;;;;20.77;12.23;;;21.60;99.90;;;;;;7403366;19;20014;-87
2021/09/03 10:02:23;;;;;;;23.25;13.27;;;22.50;99.90;;;;;;7401882;19;20007;-86
2021/09/03 10:04:57;;;;;;;20.38;12.40;;;23.10;99.90;;;;;;7401767;19;20074;-87
2021/09/03 10:07:28;;;;;;;17.23;11.43;;;23.50;99.00;;;;;;7400904;19;20015;-87
2021/09/03 10:09:57;;;;;;;16.92;10.60;;;23.40;98.30;;;;;;7402035;19;20010;-87
2021/09/03 10:12:27;;;;;;;18.00;10.55;;;24.00;96.90;;;;;;7399281;19;20325;-88
2021/09/03 10:15:02;;;;;;;19.63;11.70;;;23.50;96.10;;;;;;7402256;19;20015;-88
2021/09/03 10:17:32;;;;;;;16.95;10.38;;;24.00;95.60;;;;;;7399817;19;20119;-87
2021/09/03 10:20:06;;;;;;;14.65;9.45;;;24.10;95.30;;;;;;7405882;19;20017;-87
2021/09/03 10:22:44;;;;;;;17.08;9.85;;;25.00;93.20;;;;;;7404035;19;20014;-86
2021/09/03 10:25:15;;;;;;;14.40;9.48;;;25.20;91.60;;;;;;7408410;19;20320;-85
2021/09/03 10:28:08;;;;;;;14.02;8.43;;;26.00;89.50;;;;;;7404650;19;20425;-86
2021/09/03 10:30:42;;;;;;;14.98;8.85;;;26.10;86.80;;;;;;7407064;19;20456;-85
2021/09/03 10:33:13;;;;;;;17.50;7.05;;;26.30;84.10;;;;;;7403548;19;20006;-86
2021/09/03 10:35:45;;;;;;;12.93;7.53;;;27.30;81.40;;;;;;7406632;19;20023;-84
2021/09/03 10:38:48;;;;;;;10.98;7.13;;;27.50;76.10;;;;;;7410027;19;20018;-85
2021/09/03 10:41:51;;;;;;;9.38;5.53;;;28.40;74.40;;;;;;7413098;19;20015;-86
2021/09/03 10:44:21;;;;;;;9.88;5.97;;;29.70;71.00;;;;;;7406539;19;20023;-85
2021/09/03 10:46:53;;;;;;;10.85;6.43;;;30.20;66.90;;;;;;7406231;19;20085;-85
2021/09/03 10:49:29;;;;;;;11.85;6.22;;;30.50;63.90;;;;;;7404113;19;20465;-84
2021/09/03 10:52:14;;;;;;;10.88;7.18;;;30.70;63.70;;;;;;7408911;19;20067;-85
2021/09/03 10:54:51;;;;;;;12.57;6.45;;;31.60;59.00;;;;;;7406445;19;20090;-86
2021/09/03 10:57:20;;;;;;;11.73;6.28;;;31.50;58.70;;;;;;7411812;19;20010;-86
2021/09/03 11:00:17;;;;;;;10.48;6.65;;;31.40;58.60;;;;;;7426869;19;20003;-86
2021/09/03 11:02:49;;;;;;;13.00;7.57;;;31.80;58.70;;;;;;7422075;19;20435;-84
2021/09/03 11:05:18;;;;;;;11.32;7.10;;;32.40;56.10;;;;;;7415130;19;20021;-85
2021/09/03 11:07:52;;;;;;;12.73;6.90;;;32.80;55.10;;;;;;7405749;19;20033;-85
2021/09/03 11:10:23;;;;;;;10.85;5.78;;;33.40;54.50;;;;;;7407537;19;20015;-88
2021/09/03 11:12:56;;;;;;;11.27;6.90;;;34.10;52.70;;;;;;7406055;19;20019;-87
2021/09/03 11:15:35;;;;;;;10.85;5.85;;;34.40;50.20;;;;;;7405944;19;20014;-85
2021/09/03 11:18:15;;;;;;;7.63;4.85;;;34.00;50.30;;;;;;7407032;19;20007;-88
2021/09/03 11:20:57;;;;;;;9.30;5.80;;;34.00;50.80;;;;;;7422160;19;20420;-87
2021/09/03 11:23:43;;;;;;;8.27;5.40;;;34.90;50.00;;;;;;7429987;19;20015;-86
2021/09/03 11:26:19;;;;;;;11.18;5.55;;;35.40;48.80;;;;;;7412125;19;20534;-87
2021/09/03 11:28:53;;;;;;;8.25;5.15;;;36.30;47.50;;;;;;7409981;19;20040;-87
2021/09/03 11:31:25;;;;;;;8.18;5.60;;;36.70;47.00;;;;;;7404543;19;20011;-87
2021/09/03 11:34:05;;;;;;;8.40;5.88;;;37.00;45.50;;;;;;7404522;19;20014;-87
2021/09/03 11:36:46;;;;;;;;;;;36.80;45.10;;;;;;7407061;19;20086;-88
2021/09/03 11:39:19;;;;;;;12.57;7.97;;;36.90;44.70;;;;;;7408865;19;20277;-84
2021/09/03 11:41:51;;;;;;;10.75;6.97;;;36.60;44.60;;;;;;7405628;19;20015;-84
2021/09/03 11:44:22;;;;;;;9.63;6.47;;;35.60;44.80;;;;;;7406408;19;20072;-85
2021/09/03 11:46:52;;;;;;;11.65;7.85;;;34.80;45.60;;;;;;7402921;19;20332;-86
2021/09/03 11:49:26;;;;;;;11.20;7.10;;;33.00;48.20;;;;;;7402949;19;20015;-86
2021/09/03 11:52:07;;;;;;;12.45;6.18;;;32.60;49.80;;;;;;7402624;19;20304;-86
2021/09/03 11:54:36;;;;;;;9.65;6.63;;;33.00;49.00;;;;;;7402482;19;20017;-85
2021/09/03 11:57:06;;;;;;;8.48;5.78;;;33.20;47.50;;;;;;7403738;19;20300;-85
2021/09/03 11:59:54;;;;;;;10.13;5.47;;;32.90;48.60;;;;;;7404044;19;20017;-86
2021/09/03 12:02:26;;;;;;;10.63;6.00;;;32.70;49.20;;;;;;7404043;19;20074;-86
2021/09/03 12:05:01;;;;;;;9.90;5.85;;;32.50;49.10;;;;;;7406359;19;20007;-88
2021/09/03 12:07:31;;;;;;;8.43;5.50;;;32.80;49.50;;;;;;7402398;19;20014;-86
2021/09/03 12:10:03;;;;;;;7.97;5.05;;;33.40;48.50;;;;;;7404465;19;20479;-85
2021/09/03 12:12:36;;;;;;;7.90;4.95;;;34.40;46.40;;;;;;7406644;19;20017;-88
2021/09/03 12:15:07;;;;;;;11.45;5.18;;;35.00;46.70;;;;;;7405665;19;20015;-87
2021/09/03 12:17:42;;;;;;;8.43;4.90;;;36.50;45.10;;;;;;7408894;19;20006;-87
2021/09/03 12:20:19;;;;;;;8.60;4.20;;;37.90;43.60;;;;;;7407387;19;20021;-87
2021/09/03 12:22:57;;;;;;;13.32;6.05;;;38.70;42.80;;;;;;7402944;19;20025;-87
2021/09/03 12:25:34;;;;;;;10.13;6.30;;;39.30;40.60;;;;;;7405707;19;20034;-85
2021/09/03 12:28:11;;;;;;;7.75;4.90;;;34.50;45.10;;;;;;7407066;19;20428;-86
2021/09/03 12:30:43;;;;;;;8.07;4.90;;;34.80;46.80;;;;;;7402192;19;20014;-85
2021/09/03 12:33:27;;;;;;;8.90;5.25;;;35.30;44.40;;;;;;7402994;19;20120;-87
2021/09/03 12:36:08;;;;;;;9.98;5.32;;;35.10;44.80;;;;;;7402436;19;20007;-87
2021/09/03 12:38:43;;;;;;;9.27;5.07;;;34.20;45.00;;;;;;7402301;19;20017;-87
2021/09/03 12:41:19;;;;;;;8.27;5.00;;;34.60;45.80;;;;;;7402032;19;20331;-87
2021/09/03 12:43:52;;;;;;;10.20;4.63;;;35.30;44.90;;;;;;7400811;19;20105;-86
2021/09/03 12:46:26;;;;;;;8.50;5.30;;;35.70;44.40;;;;;;7402694;19;20014;-87
2021/09/03 12:49:10;;;;;;;7.38;4.55;;;35.00;44.70;;;;;;7399072;19;20090;-85
2021/09/03 12:51:46;;;;;;;9.27;4.75;;;35.50;44.80;;;;;;7403658;19;20099;-86
2021/09/03 12:54:22;;;;;;;10.20;4.60;;;35.60;43.90;;;;;;7402149;19;20023;-86
2021/09/03 12:56:55;;;;;;;7.45;4.90;;;36.60;43.40;;;;;;7400943;19;20019;-86
2021/09/03 12:59:28;;;;;;;7.95;4.68;;;37.00;42.40;;;;;;7403025;19;20006;-86